Airport ID:KTSP
Update Time (UTC):23 OCT 19 12:34
Wind Speed (Knots):3
Wind Direction (Magnetic):080
Temperature (°C):3
Dew Point (°C):-3
Humidity (%):61
Altimeter (inHg):30.15
Density Altitude (Feet):
Visibility (Miles):10
Clouds (Hundreds of feet):BKN016
Present Weather:NO PRECIPITATION
METAR:METAR KTSP 231230Z AUTO 10003KT 10SM BKN016 04/M03 A3015 RMK AO2

The data displayed is for advisory purposes only and is not to be used for flight planning or operations.

This page is not automatically refreshed. Reload the page to see current data.